createdAt,value
2022-09-12T00:00:00.287Z,1012.36
2022-09-12T00:01:00.195Z,1012.37
2022-09-12T00:02:00.371Z,1012.35
2022-09-12T00:03:00.886Z,1012.34
2022-09-12T00:04:00.295Z,1012.30
2022-09-12T00:05:01.325Z,1012.33
2022-09-12T00:06:00.164Z,1012.31
2022-09-12T00:07:00.116Z,1012.34
2022-09-12T00:08:00.105Z,1012.37
2022-09-12T00:09:00.084Z,1012.33
2022-09-12T00:10:00.256Z,1012.31
2022-09-12T00:11:00.088Z,1012.34
2022-09-12T00:12:00.027Z,1012.28
2022-09-12T00:13:00.001Z,1012.31
2022-09-12T00:14:00.004Z,1012.32
2022-09-12T00:15:00.015Z,1012.25
2022-09-12T00:16:00.771Z,1012.30
2022-09-12T00:17:01.177Z,1012.29
2022-09-12T00:17:59.960Z,1012.28
2022-09-12T00:19:00.016Z,1012.25
2022-09-12T00:19:59.980Z,1012.27
2022-09-12T00:20:59.939Z,1012.25
2022-09-12T00:22:00.072Z,1012.19
2022-09-12T00:22:59.907Z,1012.21
2022-09-12T00:23:59.983Z,1012.24
2022-09-12T00:24:59.881Z,1012.21
2022-09-12T00:25:59.883Z,1012.23
2022-09-12T00:26:59.873Z,1012.22
2022-09-12T00:28:00.632Z,1012.19
2022-09-12T00:28:59.833Z,1012.14
2022-09-12T00:29:59.815Z,1012.16
2022-09-12T00:30:59.798Z,1012.18
2022-09-12T00:31:59.805Z,1012.14
2022-09-12T00:32:59.760Z,1012.16
2022-09-12T00:34:00.059Z,1012.17
2022-09-12T00:35:00.077Z,1012.12
2022-09-12T00:35:59.714Z,1012.14
2022-09-12T00:36:59.736Z,1012.15
2022-09-12T00:37:59.735Z,1012.13
2022-09-12T00:38:59.655Z,1012.10
2022-09-12T00:39:59.777Z,1012.12
2022-09-12T00:40:59.989Z,1012.07
2022-09-12T00:41:59.635Z,1012.12
2022-09-12T00:43:00.735Z,1012.09
2022-09-12T00:44:00.690Z,1012.10
2022-09-12T00:44:59.643Z,1012.14
2022-09-12T00:45:59.621Z,1012.06
2022-09-12T00:46:59.751Z,1012.05
2022-09-12T00:48:00.767Z,1012.08
2022-09-12T00:48:59.561Z,1012.10
2022-09-12T00:49:59.548Z,1012.04
2022-09-12T00:50:59.518Z,1012.04
2022-09-12T00:51:59.567Z,1012.03
2022-09-12T00:52:59.529Z,1012.07
2022-09-12T00:53:59.549Z,1012.03
2022-09-12T00:54:59.509Z,1011.97
2022-09-12T00:55:59.569Z,1012.04
2022-09-12T00:56:59.484Z,1012.00
2022-09-12T00:57:59.522Z,1012.01
2022-09-12T00:58:59.438Z,1012.02
2022-09-12T01:00:00.668Z,1012.01
2022-09-12T01:00:59.707Z,1012.03
2022-09-12T01:01:59.506Z,1012.00
2022-09-12T01:02:59.365Z,1012.00
2022-09-12T01:03:59.368Z,1012.00
2022-09-12T01:04:59.879Z,1011.93
2022-09-12T01:06:00.567Z,1011.97
2022-09-12T01:06:59.340Z,1011.95
2022-09-12T01:07:59.423Z,1011.92
2022-09-12T01:08:59.329Z,1011.94
2022-09-12T01:09:59.389Z,1011.88
2022-09-12T01:10:59.252Z,1011.88
2022-09-12T01:11:59.282Z,1011.84
2022-09-12T01:12:59.272Z,1011.84
2022-09-12T01:13:59.431Z,1011.83
2022-09-12T01:14:59.239Z,1011.85
2022-09-12T01:15:59.292Z,1011.83
2022-09-12T01:16:59.222Z,1011.81
2022-09-12T01:17:59.337Z,1011.79
2022-09-12T01:19:00.348Z,1011.82
2022-09-12T01:19:59.344Z,1011.80
2022-09-12T01:21:00.164Z,1011.85
2022-09-12T01:21:59.262Z,1011.80
2022-09-12T01:22:59.130Z,1011.83
2022-09-12T01:23:59.186Z,1011.78
2022-09-12T01:24:59.141Z,1011.81
2022-09-12T01:25:59.070Z,1011.87
2022-09-12T01:27:00.075Z,1011.78
2022-09-12T01:27:59.261Z,1011.78
2022-09-12T01:28:59.078Z,1011.79
2022-09-12T01:29:59.042Z,1011.75
2022-09-12T01:30:59.022Z,1011.78
2022-09-12T01:31:59.020Z,1011.79
2022-09-12T01:32:59.022Z,1011.77
2022-09-12T01:33:59.013Z,1011.76
2022-09-12T01:34:59.132Z,1011.78
2022-09-12T01:35:58.964Z,1011.76
2022-09-12T01:36:58.925Z,1011.77
2022-09-12T01:37:58.918Z,1011.74
2022-09-12T01:38:59.868Z,1011.76
2022-09-12T01:39:59.099Z,1011.73
2022-09-12T01:40:58.897Z,1011.71
2022-09-12T01:41:58.875Z,1011.74
2022-09-12T01:42:58.887Z,1011.72
2022-09-12T01:43:58.886Z,1011.66
2022-09-12T01:45:00.370Z,1011.68
2022-09-12T01:45:58.869Z,1011.69
2022-09-12T01:46:58.889Z,1011.67
2022-09-12T01:47:59.036Z,1011.70
2022-09-12T01:48:58.806Z,1011.67
2022-09-12T01:49:58.793Z,1011.64
2022-09-12T01:50:58.748Z,1011.63
2022-09-12T01:51:59.328Z,1011.67
2022-09-12T01:52:58.833Z,1011.61
2022-09-12T01:53:59.554Z,1011.64
2022-09-12T01:55:00.059Z,1011.62
2022-09-12T01:55:58.742Z,1011.68
2022-09-12T01:56:59.771Z,1011.68
2022-09-12T01:57:59.148Z,1011.65
2022-09-12T01:58:58.701Z,1011.68
2022-09-12T01:59:58.629Z,1011.70
2022-09-12T02:00:58.829Z,1011.70
2022-09-12T02:01:58.728Z,1011.68
2022-09-12T02:02:58.607Z,1011.70
2022-09-12T02:03:58.615Z,1011.71
2022-09-12T02:04:58.677Z,1011.69
2022-09-12T02:05:58.684Z,1011.66
2022-09-12T02:06:58.643Z,1011.67
2022-09-12T02:07:58.583Z,1011.65
2022-09-12T02:08:58.630Z,1011.60
2022-09-12T02:09:58.601Z,1011.61
2022-09-12T02:10:58.542Z,1011.66
2022-09-12T02:11:58.506Z,1011.60
2022-09-12T02:12:58.676Z,1011.63
2022-09-12T02:13:58.553Z,1011.60
2022-09-12T02:14:58.470Z,1011.60
2022-09-12T02:15:58.536Z,1011.61
2022-09-12T02:16:58.642Z,1011.64
2022-09-12T02:17:58.397Z,1011.64
2022-09-12T02:18:58.434Z,1011.62
2022-09-12T02:19:58.426Z,1011.64
2022-09-12T02:20:58.445Z,1011.65
2022-09-12T02:21:58.370Z,1011.56
2022-09-12T02:22:58.460Z,1011.60
2022-09-12T02:23:58.381Z,1011.54
2022-09-12T02:24:58.353Z,1011.58
2022-09-12T02:25:58.366Z,1011.55
2022-09-12T02:26:58.296Z,1011.54
2022-09-12T02:27:59.355Z,1011.57
2022-09-12T02:28:58.320Z,1011.55
2022-09-12T02:29:58.288Z,1011.60
2022-09-12T02:30:58.352Z,1011.52
2022-09-12T02:31:58.331Z,1011.53
2022-09-12T02:32:58.202Z,1011.53
2022-09-12T02:33:58.188Z,1011.54
2022-09-12T02:34:58.177Z,1011.54
2022-09-12T02:35:58.261Z,1011.56
2022-09-12T02:36:58.158Z,1011.57
2022-09-12T02:37:58.184Z,1011.56
2022-09-12T02:38:58.918Z,1011.54
2022-09-12T02:39:58.223Z,1011.55
2022-09-12T02:40:58.149Z,1011.55
2022-09-12T02:41:58.129Z,1011.55
2022-09-12T02:42:58.087Z,1011.54
2022-09-12T02:43:58.068Z,1011.53
2022-09-12T02:44:58.058Z,1011.48
2022-09-12T02:45:58.116Z,1011.51
2022-09-12T02:46:58.108Z,1011.48
2022-09-12T02:47:58.110Z,1011.46
2022-09-12T02:48:58.061Z,1011.47
2022-09-12T02:49:57.991Z,1011.46
2022-09-12T02:50:58.009Z,1011.46
2022-09-12T02:51:58.087Z,1011.44
2022-09-12T02:52:58.017Z,1011.42
2022-09-12T02:53:57.942Z,1011.47
2022-09-12T02:54:58.028Z,1011.44
2022-09-12T02:55:57.921Z,1011.42
2022-09-12T02:56:57.940Z,1011.43
2022-09-12T02:57:57.930Z,1011.40
2022-09-12T02:58:57.980Z,1011.40
2022-09-12T02:59:57.895Z,1011.42
2022-09-12T03:00:58.787Z,1011.39
2022-09-12T03:01:58.132Z,1011.37
2022-09-12T03:02:57.886Z,1011.36
2022-09-12T03:03:57.843Z,1011.37
2022-09-12T03:04:57.810Z,1011.37
2022-09-12T03:05:57.798Z,1011.36
2022-09-12T03:06:57.792Z,1011.34
2022-09-12T03:07:57.776Z,1011.37
2022-09-12T03:08:57.854Z,1011.36
2022-09-12T03:09:57.759Z,1011.39
2022-09-12T03:10:57.725Z,1011.36
2022-09-12T03:11:57.743Z,1011.34
2022-09-12T03:12:57.694Z,1011.35
2022-09-12T03:13:57.725Z,1011.32
2022-09-12T03:14:57.714Z,1011.32
2022-09-12T03:15:57.679Z,1011.31
2022-09-12T03:16:57.723Z,1011.31
2022-09-12T03:17:57.626Z,1011.35
2022-09-12T03:18:57.625Z,1011.33
2022-09-12T03:19:57.633Z,1011.28
2022-09-12T03:20:57.596Z,1011.31
2022-09-12T03:21:58.060Z,1011.31
2022-09-12T03:22:57.573Z,1011.31
2022-09-12T03:23:57.589Z,1011.35
2022-09-12T03:24:57.558Z,1011.34
2022-09-12T03:25:57.531Z,1011.34
2022-09-12T03:26:58.815Z,1011.34
2022-09-12T03:27:57.617Z,1011.33
2022-09-12T03:28:57.535Z,1011.35
2022-09-12T03:29:57.495Z,1011.33
2022-09-12T03:30:57.529Z,1011.34
2022-09-12T03:31:57.484Z,1011.35
2022-09-12T03:32:57.605Z,1011.32
2022-09-12T03:33:57.426Z,1011.34
2022-09-12T03:34:58.560Z,1011.35
2022-09-12T03:35:57.456Z,1011.37
2022-09-12T03:36:57.441Z,1011.40
2022-09-12T03:37:57.401Z,1011.38
2022-09-12T03:38:57.368Z,1011.38
2022-09-12T03:39:57.380Z,1011.36
2022-09-12T03:40:57.503Z,1011.34
2022-09-12T03:41:57.402Z,1011.35
2022-09-12T03:42:57.378Z,1011.31
2022-09-12T03:43:57.310Z,1011.32
2022-09-12T03:44:57.328Z,1011.32
2022-09-12T03:45:57.366Z,1011.29
2022-09-12T03:46:57.305Z,1011.33
2022-09-12T03:47:57.309Z,1011.36
2022-09-12T03:48:57.258Z,1011.33
2022-09-12T03:49:57.216Z,1011.32
2022-09-12T03:50:57.233Z,1011.28
2022-09-12T03:51:57.338Z,1011.29
2022-09-12T03:52:58.172Z,1011.31
2022-09-12T03:53:57.242Z,1011.29
2022-09-12T03:54:57.190Z,1011.31
2022-09-12T03:55:57.144Z,1011.31
2022-09-12T03:56:57.132Z,1011.29
2022-09-12T03:57:57.118Z,1011.28
2022-09-12T03:58:57.142Z,1011.30
2022-09-12T03:59:57.093Z,1011.34
2022-09-12T04:00:57.152Z,1011.34
2022-09-12T04:01:57.097Z,1011.37
2022-09-12T04:02:57.101Z,1011.34
2022-09-12T04:03:57.073Z,1011.36
2022-09-12T04:04:58.233Z,1011.35
2022-09-12T04:05:57.026Z,1011.39
2022-09-12T04:06:57.046Z,1011.36
2022-09-12T04:07:57.002Z,1011.40
2022-09-12T04:08:57.011Z,1011.40
2022-09-12T04:09:57.063Z,1011.43
2022-09-12T04:10:56.985Z,1011.38
2022-09-12T04:11:57.003Z,1011.42
2022-09-12T04:12:56.969Z,1011.40
2022-09-12T04:13:57.094Z,1011.39
2022-09-12T04:14:56.985Z,1011.41
2022-09-12T04:15:56.936Z,1011.39
2022-09-12T04:16:56.870Z,1011.46
2022-09-12T04:18:00.469Z,1011.41
2022-09-12T04:18:57.997Z,1011.41
2022-09-12T04:19:56.867Z,1011.44
2022-09-12T04:20:56.838Z,1011.42
2022-09-12T04:21:56.860Z,1011.41
2022-09-12T04:22:56.838Z,1011.45
2022-09-12T04:23:56.828Z,1011.49
2022-09-12T04:24:56.860Z,1011.47
2022-09-12T04:25:57.259Z,1011.48
2022-09-12T04:26:56.754Z,1011.50
2022-09-12T04:27:56.729Z,1011.53
2022-09-12T04:28:56.815Z,1011.49
2022-09-12T04:29:57.880Z,1011.50
2022-09-12T04:30:56.867Z,1011.53
2022-09-12T04:31:57.688Z,1011.50
2022-09-12T04:32:56.686Z,1011.52
2022-09-12T04:33:56.662Z,1011.50
2022-09-12T04:34:56.702Z,1011.53
2022-09-12T04:35:56.632Z,1011.53
2022-09-12T04:36:56.642Z,1011.48
2022-09-12T04:37:56.600Z,1011.51
2022-09-12T04:38:56.630Z,1011.48
2022-09-12T04:39:56.863Z,1011.45
2022-09-12T04:40:56.582Z,1011.44
2022-09-12T04:41:56.773Z,1011.45
2022-09-12T04:42:56.544Z,1011.47
2022-09-12T04:43:56.818Z,1011.45
2022-09-12T04:44:56.891Z,1011.45
2022-09-12T04:45:56.643Z,1011.48
2022-09-12T04:46:56.501Z,1011.44
2022-09-12T04:47:56.542Z,1011.48
2022-09-12T04:48:57.224Z,1011.47
2022-09-12T04:49:56.451Z,1011.46
2022-09-12T04:50:56.511Z,1011.48
2022-09-12T04:51:56.465Z,1011.46
2022-09-12T04:52:56.406Z,1011.52
2022-09-12T04:53:56.401Z,1011.48
2022-09-12T04:54:56.417Z,1011.49
2022-09-12T04:55:56.405Z,1011.49
2022-09-12T04:56:56.476Z,1011.47
2022-09-12T04:57:56.345Z,1011.53
2022-09-12T04:58:56.349Z,1011.51
2022-09-12T04:59:56.334Z,1011.47
2022-09-12T05:00:56.356Z,1011.51
2022-09-12T05:01:56.350Z,1011.49
2022-09-12T05:02:56.327Z,1011.53
2022-09-12T05:03:56.274Z,1011.50
2022-09-12T05:04:56.299Z,1011.49
2022-09-12T05:05:56.640Z,1011.50
2022-09-12T05:06:56.246Z,1011.46
2022-09-12T05:07:56.244Z,1011.46
2022-09-12T05:08:56.268Z,1011.43
2022-09-12T05:09:56.254Z,1011.43
2022-09-12T05:10:56.234Z,1011.42
2022-09-12T05:12:04.977Z,1011.38
2022-09-12T05:12:57.152Z,1011.41
2022-09-12T05:13:56.137Z,1011.43
2022-09-12T05:14:56.187Z,1011.45
2022-09-12T05:15:56.196Z,1011.48
2022-09-12T05:16:56.241Z,1011.51
2022-09-12T05:17:56.106Z,1011.52
2022-09-12T05:18:56.077Z,1011.53
2022-09-12T05:19:56.106Z,1011.58
2022-09-12T05:20:56.059Z,1011.58
2022-09-12T05:21:56.100Z,1011.60
2022-09-12T05:22:56.047Z,1011.62
2022-09-12T05:23:56.047Z,1011.54
2022-09-12T05:24:56.007Z,1011.52
2022-09-12T05:25:57.114Z,1011.53
2022-09-12T05:26:56.003Z,1011.52
2022-09-12T05:27:55.971Z,1011.52
2022-09-12T05:28:55.950Z,1011.54
2022-09-12T05:29:55.960Z,1011.54
2022-09-12T05:30:55.943Z,1011.57
2022-09-12T05:31:56.005Z,1011.56
2022-09-12T05:32:56.001Z,1011.58
2022-09-12T05:33:55.920Z,1011.59
2022-09-12T05:34:56.762Z,1011.59
2022-09-12T05:35:55.902Z,1011.57
2022-09-12T05:36:55.874Z,1011.60
2022-09-12T05:37:55.901Z,1011.60
2022-09-12T05:38:55.962Z,1011.60
2022-09-12T05:39:55.882Z,1011.67
2022-09-12T05:40:55.813Z,1011.69
2022-09-12T05:41:56.760Z,1011.68
2022-09-12T05:42:55.836Z,1011.72
2022-09-12T05:43:55.815Z,1011.69
2022-09-12T05:44:55.765Z,1011.73
2022-09-12T05:45:55.789Z,1011.73
2022-09-12T05:46:55.959Z,1011.76
2022-09-12T05:47:57.184Z,1011.78
2022-09-12T05:48:56.683Z,1011.77
2022-09-12T05:49:55.685Z,1011.77
2022-09-12T05:50:55.675Z,1011.73
2022-09-12T05:51:55.675Z,1011.78
2022-09-12T05:52:55.707Z,1011.79
2022-09-12T05:53:55.915Z,1011.76
2022-09-12T05:54:56.901Z,1011.71
2022-09-12T05:55:55.622Z,1011.72
2022-09-12T05:56:55.659Z,1011.71
2022-09-12T05:57:55.919Z,1011.76
2022-09-12T05:58:55.586Z,1011.72
2022-09-12T05:59:55.577Z,1011.74
2022-09-12T06:00:55.644Z,1011.75
2022-09-12T06:01:55.670Z,1011.75
2022-09-12T06:02:55.767Z,1011.76
2022-09-12T06:03:55.645Z,1011.74
2022-09-12T06:04:55.493Z,1011.73
2022-09-12T06:05:55.533Z,1011.71
2022-09-12T06:06:55.478Z,1011.74
2022-09-12T06:07:55.446Z,1011.70
2022-09-12T06:08:55.687Z,1011.75
2022-09-12T06:09:55.646Z,1011.74
2022-09-12T06:10:58.214Z,1011.70
2022-09-12T06:11:56.502Z,1011.75
2022-09-12T06:12:55.417Z,1011.71
2022-09-12T06:13:55.400Z,1011.76
2022-09-12T06:14:55.393Z,1011.76
2022-09-12T06:15:55.356Z,1011.78
2022-09-12T06:16:55.410Z,1011.77
2022-09-12T06:17:55.404Z,1011.79
2022-09-12T06:18:55.350Z,1011.78
2022-09-12T06:19:56.357Z,1011.76
2022-09-12T06:20:55.450Z,1011.74
2022-09-12T06:21:55.664Z,1011.74
2022-09-12T06:22:55.285Z,1011.70
2022-09-12T06:23:55.258Z,1011.70
2022-09-12T06:24:57.971Z,1011.72
2022-09-12T06:25:55.380Z,1011.71
2022-09-12T06:26:56.386Z,1011.72
2022-09-12T06:27:55.690Z,1011.70
2022-09-12T06:28:55.174Z,1011.73
2022-09-12T06:29:55.550Z,1011.74
2022-09-12T06:30:55.394Z,1011.76
2022-09-12T06:31:55.270Z,1011.75
2022-09-12T06:32:55.651Z,1011.73
2022-09-12T06:33:56.217Z,1011.72
2022-09-12T06:34:55.370Z,1011.71
2022-09-12T06:35:55.117Z,1011.73
2022-09-12T06:36:55.184Z,1011.69
2022-09-12T06:37:55.389Z,1011.71
2022-09-12T06:38:55.145Z,1011.69
2022-09-12T06:39:56.050Z,1011.66
2022-09-12T06:40:55.394Z,1011.67
2022-09-12T06:41:55.964Z,1011.66
2022-09-12T06:42:55.012Z,1011.65
2022-09-12T06:43:55.564Z,1011.68
2022-09-12T06:44:55.053Z,1011.67
2022-09-12T06:45:55.010Z,1011.69
2022-09-12T06:46:55.031Z,1011.70
2022-09-12T06:47:55.895Z,1011.71
2022-09-12T06:48:55.039Z,1011.63
2022-09-12T06:49:54.943Z,1011.64
2022-09-12T06:50:56.125Z,1011.59
2022-09-12T06:51:54.946Z,1011.59
2022-09-12T06:52:54.859Z,1011.54
2022-09-12T06:53:54.912Z,1011.53
2022-09-12T06:54:54.877Z,1011.56
2022-09-12T06:55:54.846Z,1011.50
2022-09-12T06:56:54.901Z,1011.58
2022-09-12T06:57:54.874Z,1011.56
2022-09-12T06:58:54.797Z,1011.55
2022-09-12T06:59:54.825Z,1011.53
2022-09-12T07:00:58.982Z,1011.57
2022-09-12T07:01:55.663Z,1011.61
2022-09-12T07:02:56.070Z,1011.62
2022-09-12T07:03:55.899Z,1011.63
2022-09-12T07:04:55.567Z,1011.61
2022-09-12T07:05:55.041Z,1011.55
2022-09-12T07:06:55.607Z,1011.53
2022-09-12T07:07:54.780Z,1011.56
2022-09-12T07:08:55.043Z,1011.60
2022-09-12T07:09:54.690Z,1011.60
2022-09-12T07:10:54.672Z,1011.60
2022-09-12T07:11:54.674Z,1011.60
2022-09-12T07:12:54.622Z,1011.63
2022-09-12T07:13:55.560Z,1011.63
2022-09-12T07:14:54.761Z,1011.65
2022-09-12T07:15:54.641Z,1011.65
2022-09-12T07:16:54.637Z,1011.71
2022-09-12T07:17:54.774Z,1011.74
2022-09-12T07:18:54.822Z,1011.72
2022-09-12T07:19:54.980Z,1011.72
2022-09-12T07:20:54.568Z,1011.69
2022-09-12T07:21:58.547Z,1011.74
2022-09-12T07:22:54.499Z,1011.72
2022-09-12T07:23:54.493Z,1011.74
2022-09-12T07:24:54.505Z,1011.70
2022-09-12T07:25:54.517Z,1011.73
2022-09-12T07:26:55.215Z,1011.67
2022-09-12T07:27:54.434Z,1011.67
2022-09-12T07:29:00.700Z,1011.68
2022-09-12T07:29:55.397Z,1011.69
2022-09-12T07:30:54.429Z,1011.69
2022-09-12T07:31:54.415Z,1011.69
2022-09-12T07:32:54.553Z,1011.69
2022-09-12T07:33:54.987Z,1011.66
2022-09-12T07:34:55.485Z,1011.74
2022-09-12T07:35:54.333Z,1011.69
2022-09-12T07:36:54.336Z,1011.68
2022-09-12T07:37:54.400Z,1011.69
2022-09-12T07:38:57.251Z,1011.69
2022-09-12T07:39:55.547Z,1011.71
2022-09-12T07:40:55.058Z,1011.72
2022-09-12T07:41:55.321Z,1011.73
2022-09-12T07:42:54.452Z,1011.72
2022-09-12T07:43:54.529Z,1011.74
2022-09-12T07:44:55.039Z,1011.74
2022-09-12T07:45:54.439Z,1011.75
2022-09-12T07:46:54.221Z,1011.74
2022-09-12T07:47:54.521Z,1011.75
2022-09-12T07:48:54.225Z,1011.73
2022-09-12T07:49:54.181Z,1011.76
2022-09-12T07:50:54.318Z,1011.79
2022-09-12T07:51:54.280Z,1011.76
2022-09-12T07:52:55.292Z,1011.74
2022-09-12T07:53:54.118Z,1011.78
2022-09-12T07:54:54.341Z,1011.72
2022-09-12T07:55:54.073Z,1011.76
2022-09-12T07:56:54.087Z,1011.74
2022-09-12T07:57:54.544Z,1011.73
2022-09-12T07:58:54.043Z,1011.75
2022-09-12T07:59:54.364Z,1011.73
2022-09-12T08:00:53.993Z,1011.72
2022-09-12T08:01:54.014Z,1011.72
2022-09-12T08:02:54.094Z,1011.73
2022-09-12T08:03:54.102Z,1011.72
2022-09-12T08:04:54.041Z,1011.76
2022-09-12T08:05:55.060Z,1011.75
2022-09-12T08:06:54.044Z,1011.75
2022-09-12T08:07:57.751Z,1011.74
2022-09-12T08:08:54.789Z,1011.77
2022-09-12T08:09:55.393Z,1011.81
2022-09-12T08:10:54.841Z,1011.81
2022-09-12T08:11:53.897Z,1011.80
2022-09-12T08:12:53.925Z,1011.78
2022-09-12T08:13:55.845Z,1011.80
2022-09-12T08:14:54.019Z,1011.84
2022-09-12T08:15:54.062Z,1011.84
2022-09-12T08:16:54.037Z,1011.82
2022-09-12T08:17:53.792Z,1011.86
2022-09-12T08:18:53.769Z,1011.79
2022-09-12T08:19:53.787Z,1011.78
2022-09-12T08:20:53.768Z,1011.75
2022-09-12T08:21:54.547Z,1011.79
2022-09-12T08:22:54.972Z,1011.76
2022-09-12T08:23:54.878Z,1011.76
2022-09-12T08:24:53.738Z,1011.81
2022-09-12T08:25:53.682Z,1011.80
2022-09-12T08:26:53.660Z,1011.78
2022-09-12T08:27:53.817Z,1011.77
2022-09-12T08:28:53.697Z,1011.76
2022-09-12T08:29:53.637Z,1011.75
2022-09-12T08:30:53.659Z,1011.76
2022-09-12T08:31:57.252Z,1011.80
2022-09-12T08:32:54.518Z,1011.79
2022-09-12T08:33:53.730Z,1011.79
2022-09-12T08:34:54.338Z,1011.74
2022-09-12T08:35:53.623Z,1011.74
2022-09-12T08:36:53.792Z,1011.76
2022-09-12T08:37:54.049Z,1011.77
2022-09-12T08:38:57.383Z,1011.78
2022-09-12T08:39:54.662Z,1011.78
2022-09-12T08:40:53.609Z,1011.73
2022-09-12T08:41:53.582Z,1011.75
2022-09-12T08:42:53.484Z,1011.72
2022-09-12T08:43:56.633Z,1011.76
2022-09-12T08:44:53.497Z,1011.68
2022-09-12T08:45:53.574Z,1011.71
2022-09-12T08:46:53.631Z,1011.69
2022-09-12T08:47:53.464Z,1011.73
2022-09-12T08:48:53.428Z,1011.70
2022-09-12T08:49:53.368Z,1011.72
2022-09-12T08:50:53.405Z,1011.74
2022-09-12T08:51:54.092Z,1011.73
2022-09-12T08:52:53.356Z,1011.69
2022-09-12T08:53:53.329Z,1011.67
2022-09-12T08:54:53.528Z,1011.67
2022-09-12T08:55:53.428Z,1011.67
2022-09-12T08:56:53.284Z,1011.65
2022-09-12T08:57:53.240Z,1011.65
2022-09-12T08:58:53.266Z,1011.66
2022-09-12T08:59:53.388Z,1011.69
2022-09-12T09:00:54.178Z,1011.69
2022-09-12T09:01:53.527Z,1011.70
2022-09-12T09:02:53.281Z,1011.71
2022-09-12T09:03:53.181Z,1011.72
2022-09-12T09:04:53.189Z,1011.67
2022-09-12T09:05:53.170Z,1011.68
2022-09-12T09:06:53.249Z,1011.66
2022-09-12T09:07:54.221Z,1011.65
2022-09-12T09:08:53.234Z,1011.69
2022-09-12T09:09:53.101Z,1011.68
2022-09-12T09:10:53.590Z,1011.69
2022-09-12T09:11:53.094Z,1011.62
2022-09-12T09:12:53.292Z,1011.62
2022-09-12T09:13:53.124Z,1011.61
2022-09-12T09:14:53.032Z,1011.66
2022-09-12T09:15:53.082Z,1011.64
2022-09-12T09:16:53.094Z,1011.63
2022-09-12T09:17:53.037Z,1011.68
2022-09-12T09:18:54.192Z,1011.66
2022-09-12T09:19:53.074Z,1011.64
2022-09-12T09:20:53.030Z,1011.62
2022-09-12T09:21:52.946Z,1011.61
2022-09-12T09:22:53.540Z,1011.59
2022-09-12T09:23:52.927Z,1011.60
2022-09-12T09:24:52.984Z,1011.58
2022-09-12T09:25:52.897Z,1011.53
2022-09-12T09:26:53.005Z,1011.53
2022-09-12T09:27:53.860Z,1011.52
2022-09-12T09:28:52.898Z,1011.51
2022-09-12T09:29:53.027Z,1011.52
2022-09-12T09:30:52.889Z,1011.50
2022-09-12T09:31:52.823Z,1011.49
2022-09-12T09:32:53.021Z,1011.49
2022-09-12T09:33:52.849Z,1011.47
2022-09-12T09:34:53.031Z,1011.44
2022-09-12T09:35:53.590Z,1011.43
2022-09-12T09:36:54.001Z,1011.42
2022-09-12T09:37:56.762Z,1011.42
2022-09-12T09:38:54.304Z,1011.41
2022-09-12T09:39:53.872Z,1011.37
2022-09-12T09:40:52.698Z,1011.38
2022-09-12T09:41:53.527Z,1011.42
2022-09-12T09:42:52.658Z,1011.34
2022-09-12T09:43:52.659Z,1011.34
2022-09-12T09:44:52.629Z,1011.34
2022-09-12T09:45:53.692Z,1011.36
2022-09-12T09:46:52.753Z,1011.35
2022-09-12T09:47:53.460Z,1011.32
2022-09-12T09:48:52.761Z,1011.33
2022-09-12T09:49:52.668Z,1011.28
2022-09-12T09:50:52.568Z,1011.30
2022-09-12T09:51:52.766Z,1011.27
2022-09-12T09:52:53.083Z,1011.37
2022-09-12T09:53:52.567Z,1011.37
2022-09-12T09:54:52.515Z,1011.28
2022-09-12T09:55:52.561Z,1011.26
2022-09-12T09:56:53.624Z,1011.31
2022-09-12T09:57:52.785Z,1011.29
2022-09-12T09:58:52.486Z,1011.28
2022-09-12T09:59:52.455Z,1011.28
2022-09-12T10:00:56.524Z,1011.28
2022-09-12T10:01:52.509Z,1011.28
2022-09-12T10:02:52.813Z,1011.25
2022-09-12T10:03:52.532Z,1011.31
2022-09-12T10:04:52.420Z,1011.27
2022-09-12T10:05:52.436Z,1011.23
2022-09-12T10:06:52.362Z,1011.24
2022-09-12T10:07:52.407Z,1011.27
2022-09-12T10:08:53.500Z,1011.18
2022-09-12T10:09:53.151Z,1011.16
2022-09-12T10:10:52.340Z,1011.16
2022-09-12T10:11:53.209Z,1011.12
2022-09-12T10:12:52.300Z,1011.13
2022-09-12T10:13:52.590Z,1011.11
2022-09-12T10:14:53.430Z,1011.14
2022-09-12T10:15:52.288Z,1011.12
2022-09-12T10:16:52.742Z,1011.10
2022-09-12T10:17:52.301Z,1011.08
2022-09-12T10:18:52.253Z,1011.08
2022-09-12T10:20:10.598Z,1011.11
2022-09-12T10:20:54.393Z,1011.09
2022-09-12T10:21:52.365Z,1011.10
2022-09-12T10:22:52.232Z,1011.06
2022-09-12T10:23:52.313Z,1011.07
2022-09-12T10:24:52.197Z,1011.09
2022-09-12T10:25:52.137Z,1011.06
2022-09-12T10:26:56.605Z,1011.06
2022-09-12T10:27:53.206Z,1011.05
2022-09-12T10:28:53.197Z,1011.08
2022-09-12T10:29:52.378Z,1011.07
2022-09-12T10:30:52.489Z,1011.10
2022-09-12T10:31:52.829Z,1011.06
2022-09-12T10:32:52.058Z,1011.08
2022-09-12T10:33:53.193Z,1011.12
2022-09-12T10:34:52.104Z,1011.05
2022-09-12T10:35:52.104Z,1011.07
2022-09-12T10:36:51.977Z,1011.06
2022-09-12T10:37:52.561Z,1011.09
2022-09-12T10:38:51.940Z,1011.09
2022-09-12T10:39:52.017Z,1011.09
2022-09-12T10:40:52.300Z,1011.08
2022-09-12T10:41:51.955Z,1011.09
2022-09-12T10:42:51.928Z,1011.07
2022-09-12T10:43:52.700Z,1011.03
2022-09-12T10:44:51.884Z,1011.02
2022-09-12T10:45:52.036Z,1011.01
2022-09-12T10:46:51.889Z,1011.02
2022-09-12T10:47:51.814Z,1011.02
2022-09-12T10:48:52.735Z,1011.05
2022-09-12T10:49:51.843Z,1011.04
2022-09-12T10:50:52.966Z,1011.00
2022-09-12T10:51:51.893Z,1010.95
2022-09-12T10:52:51.908Z,1010.97
2022-09-12T10:53:51.831Z,1010.94
2022-09-12T10:54:51.814Z,1010.94
2022-09-12T10:55:51.808Z,1010.95
2022-09-12T10:56:51.785Z,1010.90
2022-09-12T10:57:51.727Z,1010.96
2022-09-12T10:58:51.728Z,1010.88
2022-09-12T10:59:52.690Z,1010.85
2022-09-12T11:00:51.870Z,1010.85
2022-09-12T11:01:53.220Z,1010.85
2022-09-12T11:02:52.024Z,1010.84
2022-09-12T11:03:51.683Z,1010.81
2022-09-12T11:04:51.840Z,1010.81
2022-09-12T11:05:51.651Z,1010.78
2022-09-12T11:06:51.650Z,1010.80
2022-09-12T11:07:52.611Z,1010.82
2022-09-12T11:08:51.664Z,1010.80
2022-09-12T11:09:51.640Z,1010.77
2022-09-12T11:10:51.564Z,1010.78
2022-09-12T11:11:52.574Z,1010.76
2022-09-12T11:12:52.476Z,1010.83
2022-09-12T11:13:52.375Z,1010.78
2022-09-12T11:14:51.531Z,1010.79
2022-09-12T11:15:51.522Z,1010.77
2022-09-12T11:16:51.466Z,1010.73
2022-09-12T11:17:51.498Z,1010.74
2022-09-12T11:18:51.463Z,1010.72
2022-09-12T11:19:52.373Z,1010.72
2022-09-12T11:20:51.621Z,1010.76
2022-09-12T11:21:51.416Z,1010.76
2022-09-12T11:22:51.388Z,1010.74
2022-09-12T11:23:51.406Z,1010.78
2022-09-12T11:24:52.347Z,1010.72
2022-09-12T11:25:51.397Z,1010.72
2022-09-12T11:26:51.514Z,1010.68
2022-09-12T11:27:51.479Z,1010.70
2022-09-12T11:28:51.367Z,1010.73
2022-09-12T11:29:51.449Z,1010.73
2022-09-12T11:30:52.302Z,1010.70
2022-09-12T11:31:51.297Z,1010.72
2022-09-12T11:32:51.413Z,1010.71
2022-09-12T11:33:54.956Z,1010.69
2022-09-12T11:34:52.292Z,1010.67
2022-09-12T11:35:55.161Z,1010.68
2022-09-12T11:36:51.639Z,1010.68
2022-09-12T11:37:51.902Z,1010.72
2022-09-12T11:38:51.325Z,1010.68
2022-09-12T11:39:55.201Z,1010.70
2022-09-12T11:40:51.692Z,1010.65
2022-09-12T11:41:52.251Z,1010.66
2022-09-12T11:42:51.652Z,1010.65
2022-09-12T11:43:51.126Z,1010.61
2022-09-12T11:44:51.271Z,1010.61
2022-09-12T11:45:51.121Z,1010.56
2022-09-12T11:46:52.038Z,1010.58
2022-09-12T11:47:51.810Z,1010.57
2022-09-12T11:48:51.272Z,1010.54
2022-09-12T11:49:51.101Z,1010.56
2022-09-12T11:50:51.012Z,1010.53
2022-09-12T11:51:51.014Z,1010.55
2022-09-12T11:52:51.058Z,1010.52
2022-09-12T11:53:51.099Z,1010.60
2022-09-12T11:54:53.667Z,1010.57
2022-09-12T11:55:50.963Z,1010.57
2022-09-12T11:56:50.939Z,1010.53
2022-09-12T11:57:50.919Z,1010.54
2022-09-12T11:58:50.897Z,1010.52
2022-09-12T11:59:50.932Z,1010.52
2022-09-12T12:00:50.885Z,1010.55
2022-09-12T12:01:50.871Z,1010.51
2022-09-12T12:02:51.024Z,1010.57
2022-09-12T12:03:50.910Z,1010.56
2022-09-12T12:04:50.846Z,1010.54